sensor_id;sensor_type;location;lat;lon;timestamp;P1;durP1;ratioP1;P2;durP2;ratioP2
79578;SDS011;69051;52.406;5.280;2023-12-04T00:00:55;35.97;;;15.93;;
79578;SDS011;69051;52.406;5.280;2023-12-04T00:03:22;31.20;;;14.50;;
79578;SDS011;69051;52.406;5.280;2023-12-04T00:05:48;34.22;;;12.38;;
79578;SDS011;69051;52.406;5.280;2023-12-04T00:08:15;36.67;;;15.70;;
79578;SDS011;69051;52.406;5.280;2023-12-04T00:10:41;29.83;;;11.85;;
79578;SDS011;69051;52.406;5.280;2023-12-04T00:13:08;44.58;;;18.98;;
79578;SDS011;69051;52.406;5.280;2023-12-04T00:15:34;34.28;;;14.45;;
79578;SDS011;69051;52.406;5.280;2023-12-04T00:18:01;30.95;;;13.02;;
79578;SDS011;69051;52.406;5.280;2023-12-04T00:20:27;32.58;;;14.40;;
79578;SDS011;69051;52.406;5.280;2023-12-04T00:22:54;42.08;;;17.58;;
79578;SDS011;69051;52.406;5.280;2023-12-04T00:25:21;38.55;;;15.32;;
79578;SDS011;69051;52.406;5.280;2023-12-04T00:27:47;38.40;;;15.85;;
79578;SDS011;69051;52.406;5.280;2023-12-04T00:30:14;32.83;;;13.50;;
79578;SDS011;69051;52.406;5.280;2023-12-04T00:32:40;36.72;;;16.02;;
79578;SDS011;69051;52.406;5.280;2023-12-04T00:35:07;31.35;;;13.93;;
79578;SDS011;69051;52.406;5.280;2023-12-04T00:37:33;33.20;;;14.10;;
79578;SDS011;69051;52.406;5.280;2023-12-04T00:40:05;34.55;;;13.80;;
79578;SDS011;69051;52.406;5.280;2023-12-04T00:42:33;35.80;;;12.68;;
79578;SDS011;69051;52.406;5.280;2023-12-04T00:45:02;36.53;;;13.50;;
79578;SDS011;69051;52.406;5.280;2023-12-04T00:47:29;33.92;;;12.77;;
79578;SDS011;69051;52.406;5.280;2023-12-04T00:49:55;41.10;;;17.85;;
79578;SDS011;69051;52.406;5.280;2023-12-04T00:52:21;31.30;;;12.65;;
79578;SDS011;69051;52.406;5.280;2023-12-04T00:54:48;36.67;;;13.82;;
79578;SDS011;69051;52.406;5.280;2023-12-04T00:57:14;36.20;;;14.70;;
79578;SDS011;69051;52.406;5.280;2023-12-04T00:59:41;29.27;;;12.88;;
79578;SDS011;69051;52.406;5.280;2023-12-04T01:02:07;36.30;;;14.80;;
79578;SDS011;69051;52.406;5.280;2023-12-04T01:04:34;34.40;;;14.00;;
79578;SDS011;69051;52.406;5.280;2023-12-04T01:07:01;33.33;;;14.88;;
79578;SDS011;69051;52.406;5.280;2023-12-04T01:09:27;33.22;;;14.43;;
79578;SDS011;69051;52.406;5.280;2023-12-04T01:11:54;34.65;;;13.10;;
79578;SDS011;69051;52.406;5.280;2023-12-04T01:14:21;34.75;;;14.32;;
79578;SDS011;69051;52.406;5.280;2023-12-04T01:16:48;34.67;;;13.98;;
79578;SDS011;69051;52.406;5.280;2023-12-04T01:19:14;29.38;;;12.13;;
79578;SDS011;69051;52.406;5.280;2023-12-04T01:21:41;30.90;;;12.65;;
79578;SDS011;69051;52.406;5.280;2023-12-04T01:24:08;29.80;;;11.88;;
79578;SDS011;69051;52.406;5.280;2023-12-04T01:26:35;35.63;;;14.48;;
79578;SDS011;69051;52.406;5.280;2023-12-04T01:29:01;34.47;;;13.55;;
79578;SDS011;69051;52.406;5.280;2023-12-04T01:31:27;34.22;;;12.90;;
79578;SDS011;69051;52.406;5.280;2023-12-04T01:33:54;37.50;;;14.85;;
79578;SDS011;69051;52.406;5.280;2023-12-04T01:36:21;35.88;;;14.02;;
79578;SDS011;69051;52.406;5.280;2023-12-04T01:38:47;35.25;;;13.52;;
79578;SDS011;69051;52.406;5.280;2023-12-04T01:41:14;41.95;;;16.27;;
79578;SDS011;69051;52.406;5.280;2023-12-04T01:43:40;45.00;;;17.50;;
79578;SDS011;69051;52.406;5.280;2023-12-04T01:46:06;54.75;;;28.02;;
79578;SDS011;69051;52.406;5.280;2023-12-04T01:48:33;45.60;;;18.75;;
79578;SDS011;69051;52.406;5.280;2023-12-04T01:51:00;41.75;;;16.08;;
79578;SDS011;69051;52.406;5.280;2023-12-04T01:53:29;46.47;;;21.25;;
79578;SDS011;69051;52.406;5.280;2023-12-04T01:55:56;39.00;;;15.93;;
79578;SDS011;69051;52.406;5.280;2023-12-04T01:58:22;36.60;;;15.18;;
79578;SDS011;69051;52.406;5.280;2023-12-04T02:00:49;46.75;;;18.30;;
79578;SDS011;69051;52.406;5.280;2023-12-04T02:03:16;51.58;;;19.23;;
79578;SDS011;69051;52.406;5.280;2023-12-04T02:05:45;44.78;;;17.20;;
79578;SDS011;69051;52.406;5.280;2023-12-04T02:08:12;33.60;;;13.85;;
79578;SDS011;69051;52.406;5.280;2023-12-04T02:10:38;32.03;;;14.05;;
79578;SDS011;69051;52.406;5.280;2023-12-04T02:13:05;38.05;;;14.55;;
79578;SDS011;69051;52.406;5.280;2023-12-04T02:15:33;39.95;;;14.25;;
79578;SDS011;69051;52.406;5.280;2023-12-04T02:17:59;35.90;;;15.45;;
79578;SDS011;69051;52.406;5.280;2023-12-04T02:20:32;38.72;;;14.63;;
79578;SDS011;69051;52.406;5.280;2023-12-04T02:23:02;36.97;;;15.30;;
79578;SDS011;69051;52.406;5.280;2023-12-04T02:25:29;33.25;;;12.55;;
79578;SDS011;69051;52.406;5.280;2023-12-04T02:28:05;30.38;;;12.65;;
79578;SDS011;69051;52.406;5.280;2023-12-04T02:30:32;44.30;;;19.08;;
79578;SDS011;69051;52.406;5.280;2023-12-04T02:33:04;34.38;;;14.43;;
79578;SDS011;69051;52.406;5.280;2023-12-04T02:35:32;43.08;;;16.40;;
79578;SDS011;69051;52.406;5.280;2023-12-04T02:38:00;36.80;;;13.75;;
79578;SDS011;69051;52.406;5.280;2023-12-04T02:40:27;42.10;;;17.23;;
79578;SDS011;69051;52.406;5.280;2023-12-04T02:42:53;36.17;;;14.60;;
79578;SDS011;69051;52.406;5.280;2023-12-04T02:45:20;33.05;;;14.55;;
79578;SDS011;69051;52.406;5.280;2023-12-04T02:47:46;44.97;;;20.65;;
79578;SDS011;69051;52.406;5.280;2023-12-04T02:50:13;37.45;;;14.82;;
79578;SDS011;69051;52.406;5.280;2023-12-04T02:52:39;38.72;;;15.35;;
79578;SDS011;69051;52.406;5.280;2023-12-04T02:55:06;46.53;;;17.95;;
79578;SDS011;69051;52.406;5.280;2023-12-04T02:57:33;45.50;;;15.45;;
79578;SDS011;69051;52.406;5.280;2023-12-04T02:59:59;35.58;;;13.48;;
79578;SDS011;69051;52.406;5.280;2023-12-04T03:02:26;48.45;;;18.35;;
79578;SDS011;69051;52.406;5.280;2023-12-04T03:04:52;34.58;;;14.05;;
79578;SDS011;69051;52.406;5.280;2023-12-04T03:07:19;45.30;;;18.40;;
79578;SDS011;69051;52.406;5.280;2023-12-04T03:09:46;35.38;;;14.93;;
79578;SDS011;69051;52.406;5.280;2023-12-04T03:12:15;37.47;;;15.70;;
79578;SDS011;69051;52.406;5.280;2023-12-04T03:14:42;40.85;;;15.75;;
79578;SDS011;69051;52.406;5.280;2023-12-04T03:17:09;31.35;;;13.40;;
79578;SDS011;69051;52.406;5.280;2023-12-04T03:19:35;31.80;;;13.25;;
79578;SDS011;69051;52.406;5.280;2023-12-04T03:22:02;36.20;;;16.27;;
79578;SDS011;69051;52.406;5.280;2023-12-04T03:24:29;36.22;;;14.98;;
79578;SDS011;69051;52.406;5.280;2023-12-04T03:26:56;35.53;;;14.27;;
79578;SDS011;69051;52.406;5.280;2023-12-04T03:29:22;35.42;;;13.93;;
79578;SDS011;69051;52.406;5.280;2023-12-04T03:31:49;35.38;;;15.32;;
79578;SDS011;69051;52.406;5.280;2023-12-04T03:34:15;33.17;;;13.77;;
79578;SDS011;69051;52.406;5.280;2023-12-04T03:36:42;36.42;;;14.77;;
79578;SDS011;69051;52.406;5.280;2023-12-04T03:39:08;34.40;;;13.40;;
79578;SDS011;69051;52.406;5.280;2023-12-04T03:41:35;35.42;;;16.13;;
79578;SDS011;69051;52.406;5.280;2023-12-04T03:44:01;32.88;;;13.82;;
79578;SDS011;69051;52.406;5.280;2023-12-04T03:46:28;36.20;;;14.77;;
79578;SDS011;69051;52.406;5.280;2023-12-04T03:48:54;39.15;;;13.80;;
79578;SDS011;69051;52.406;5.280;2023-12-04T03:51:21;32.92;;;13.45;;
79578;SDS011;69051;52.406;5.280;2023-12-04T03:53:48;35.35;;;14.05;;
79578;SDS011;69051;52.406;5.280;2023-12-04T03:56:14;34.55;;;14.88;;
79578;SDS011;69051;52.406;5.280;2023-12-04T03:58:41;32.05;;;13.48;;
79578;SDS011;69051;52.406;5.280;2023-12-04T04:01:07;31.20;;;12.85;;
79578;SDS011;69051;52.406;5.280;2023-12-04T04:03:34;27.52;;;12.20;;
79578;SDS011;69051;52.406;5.280;2023-12-04T04:06:00;33.67;;;13.23;;
79578;SDS011;69051;52.406;5.280;2023-12-04T04:08:27;31.55;;;13.15;;
79578;SDS011;69051;52.406;5.280;2023-12-04T04:10:53;38.00;;;17.33;;
79578;SDS011;69051;52.406;5.280;2023-12-04T04:13:20;29.63;;;12.65;;
79578;SDS011;69051;52.406;5.280;2023-12-04T04:15:46;43.53;;;15.95;;
79578;SDS011;69051;52.406;5.280;2023-12-04T04:18:13;29.30;;;10.07;;
79578;SDS011;69051;52.406;5.280;2023-12-04T04:20:39;30.10;;;12.77;;
79578;SDS011;69051;52.406;5.280;2023-12-04T04:23:06;28.40;;;11.98;;
79578;SDS011;69051;52.406;5.280;2023-12-04T04:25:32;30.65;;;12.93;;
79578;SDS011;69051;52.406;5.280;2023-12-04T04:27:59;33.70;;;15.82;;
79578;SDS011;69051;52.406;5.280;2023-12-04T04:30:25;28.83;;;11.38;;
79578;SDS011;69051;52.406;5.280;2023-12-04T04:32:51;28.92;;;12.43;;
79578;SDS011;69051;52.406;5.280;2023-12-04T04:35:18;28.90;;;11.25;;
79578;SDS011;69051;52.406;5.280;2023-12-04T04:37:44;22.88;;;10.35;;
79578;SDS011;69051;52.406;5.280;2023-12-04T04:40:13;33.38;;;13.82;;
79578;SDS011;69051;52.406;5.280;2023-12-04T04:42:40;32.22;;;14.95;;
79578;SDS011;69051;52.406;5.280;2023-12-04T04:45:07;26.13;;;11.65;;
79578;SDS011;69051;52.406;5.280;2023-12-04T04:47:33;35.90;;;15.20;;
79578;SDS011;69051;52.406;5.280;2023-12-04T04:50:00;30.70;;;12.02;;
79578;SDS011;69051;52.406;5.280;2023-12-04T04:52:26;27.90;;;11.63;;
79578;SDS011;69051;52.406;5.280;2023-12-04T04:54:56;28.48;;;10.35;;
79578;SDS011;69051;52.406;5.280;2023-12-04T04:57:23;32.60;;;15.35;;
79578;SDS011;69051;52.406;5.280;2023-12-04T04:59:49;30.85;;;11.85;;
79578;SDS011;69051;52.406;5.280;2023-12-04T05:02:16;25.63;;;11.27;;
79578;SDS011;69051;52.406;5.280;2023-12-04T05:04:42;24.73;;;9.80;;
79578;SDS011;69051;52.406;5.280;2023-12-04T05:07:09;27.30;;;11.65;;
79578;SDS011;69051;52.406;5.280;2023-12-04T05:09:35;25.83;;;11.20;;
79578;SDS011;69051;52.406;5.280;2023-12-04T05:12:02;24.25;;;10.65;;
79578;SDS011;69051;52.406;5.280;2023-12-04T05:14:29;23.80;;;10.20;;
79578;SDS011;69051;52.406;5.280;2023-12-04T05:16:55;30.77;;;11.32;;
79578;SDS011;69051;52.406;5.280;2023-12-04T05:19:21;26.55;;;10.30;;
79578;SDS011;69051;52.406;5.280;2023-12-04T05:21:48;28.10;;;11.02;;
79578;SDS011;69051;52.406;5.280;2023-12-04T05:24:14;26.83;;;10.18;;
79578;SDS011;69051;52.406;5.280;2023-12-04T05:26:41;27.25;;;11.70;;
79578;SDS011;69051;52.406;5.280;2023-12-04T05:29:09;25.58;;;10.88;;
79578;SDS011;69051;52.406;5.280;2023-12-04T05:31:35;27.58;;;11.13;;
79578;SDS011;69051;52.406;5.280;2023-12-04T05:34:02;24.77;;;10.90;;
79578;SDS011;69051;52.406;5.280;2023-12-04T05:36:29;22.73;;;11.30;;
79578;SDS011;69051;52.406;5.280;2023-12-04T05:38:56;30.73;;;15.07;;
79578;SDS011;69051;52.406;5.280;2023-12-04T05:41:26;26.42;;;10.55;;
79578;SDS011;69051;52.406;5.280;2023-12-04T05:43:53;24.55;;;11.10;;
79578;SDS011;69051;52.406;5.280;2023-12-04T05:46:19;24.98;;;11.65;;
79578;SDS011;69051;52.406;5.280;2023-12-04T05:48:46;26.50;;;10.45;;
79578;SDS011;69051;52.406;5.280;2023-12-04T05:51:12;27.83;;;10.80;;
79578;SDS011;69051;52.406;5.280;2023-12-04T05:53:40;25.55;;;10.18;;
79578;SDS011;69051;52.406;5.280;2023-12-04T05:56:06;21.40;;;10.07;;
79578;SDS011;69051;52.406;5.280;2023-12-04T05:58:35;26.92;;;12.18;;
79578;SDS011;69051;52.406;5.280;2023-12-04T06:01:01;24.05;;;10.57;;
79578;SDS011;69051;52.406;5.280;2023-12-04T06:03:28;22.73;;;11.02;;
79578;SDS011;69051;52.406;5.280;2023-12-04T06:05:55;23.00;;;10.27;;
79578;SDS011;69051;52.406;5.280;2023-12-04T06:08:24;27.05;;;12.18;;
79578;SDS011;69051;52.406;5.280;2023-12-04T06:10:51;28.30;;;12.60;;
79578;SDS011;69051;52.406;5.280;2023-12-04T06:13:18;29.63;;;11.70;;
79578;SDS011;69051;52.406;5.280;2023-12-04T06:15:44;31.30;;;14.75;;
79578;SDS011;69051;52.406;5.280;2023-12-04T06:18:11;28.27;;;12.07;;
79578;SDS011;69051;52.406;5.280;2023-12-04T06:20:37;33.80;;;13.85;;
79578;SDS011;69051;52.406;5.280;2023-12-04T06:23:04;35.55;;;17.02;;
79578;SDS011;69051;52.406;5.280;2023-12-04T06:25:31;26.75;;;12.52;;
79578;SDS011;69051;52.406;5.280;2023-12-04T06:27:57;28.00;;;13.88;;
79578;SDS011;69051;52.406;5.280;2023-12-04T06:30:24;29.80;;;12.77;;
79578;SDS011;69051;52.406;5.280;2023-12-04T06:32:51;27.15;;;12.27;;
79578;SDS011;69051;52.406;5.280;2023-12-04T06:35:17;23.98;;;10.23;;
79578;SDS011;69051;52.406;5.280;2023-12-04T06:37:45;23.02;;;10.38;;
79578;SDS011;69051;52.406;5.280;2023-12-04T06:40:14;30.63;;;12.27;;
79578;SDS011;69051;52.406;5.280;2023-12-04T06:42:41;24.60;;;10.38;;
79578;SDS011;69051;52.406;5.280;2023-12-04T06:45:08;17.60;;;10.13;;
79578;SDS011;69051;52.406;5.280;2023-12-04T06:47:35;24.95;;;11.05;;
79578;SDS011;69051;52.406;5.280;2023-12-04T06:50:02;26.67;;;10.40;;
79578;SDS011;69051;52.406;5.280;2023-12-04T06:52:29;21.90;;;9.55;;
79578;SDS011;69051;52.406;5.280;2023-12-04T06:54:55;25.17;;;11.45;;
79578;SDS011;69051;52.406;5.280;2023-12-04T06:57:22;27.23;;;13.02;;
79578;SDS011;69051;52.406;5.280;2023-12-04T06:59:48;20.55;;;9.55;;
79578;SDS011;69051;52.406;5.280;2023-12-04T07:02:15;25.58;;;11.90;;
79578;SDS011;69051;52.406;5.280;2023-12-04T07:04:41;29.60;;;9.63;;
79578;SDS011;69051;52.406;5.280;2023-12-04T07:07:08;23.52;;;12.27;;
79578;SDS011;69051;52.406;5.280;2023-12-04T07:09:34;21.60;;;10.43;;
79578;SDS011;69051;52.406;5.280;2023-12-04T07:12:01;21.75;;;9.75;;
79578;SDS011;69051;52.406;5.280;2023-12-04T07:14:29;24.67;;;8.75;;
79578;SDS011;69051;52.406;5.280;2023-12-04T07:16:55;23.00;;;8.95;;
79578;SDS011;69051;52.406;5.280;2023-12-04T07:19:22;23.23;;;11.30;;
79578;SDS011;69051;52.406;5.280;2023-12-04T07:21:48;23.23;;;8.10;;
79578;SDS011;69051;52.406;5.280;2023-12-04T07:24:15;20.55;;;10.27;;
79578;SDS011;69051;52.406;5.280;2023-12-04T07:26:42;19.02;;;9.68;;
79578;SDS011;69051;52.406;5.280;2023-12-04T07:29:09;22.05;;;9.30;;
79578;SDS011;69051;52.406;5.280;2023-12-04T07:31:37;22.00;;;10.07;;
79578;SDS011;69051;52.406;5.280;2023-12-04T07:34:03;21.38;;;10.05;;
79578;SDS011;69051;52.406;5.280;2023-12-04T07:36:30;20.25;;;9.68;;
79578;SDS011;69051;52.406;5.280;2023-12-04T07:38:57;21.80;;;10.10;;
79578;SDS011;69051;52.406;5.280;2023-12-04T07:41:23;19.63;;;9.05;;
79578;SDS011;69051;52.406;5.280;2023-12-04T07:43:51;20.75;;;9.50;;
79578;SDS011;69051;52.406;5.280;2023-12-04T07:46:17;19.92;;;8.82;;
79578;SDS011;69051;52.406;5.280;2023-12-04T07:48:44;22.20;;;10.00;;
79578;SDS011;69051;52.406;5.280;2023-12-04T07:51:11;17.73;;;8.80;;
79578;SDS011;69051;52.406;5.280;2023-12-04T07:53:38;20.00;;;8.75;;
79578;SDS011;69051;52.406;5.280;2023-12-04T07:56:04;20.45;;;9.95;;
79578;SDS011;69051;52.406;5.280;2023-12-04T07:58:31;23.17;;;10.68;;
79578;SDS011;69051;52.406;5.280;2023-12-04T08:00:58;18.48;;;8.85;;
79578;SDS011;69051;52.406;5.280;2023-12-04T08:03:25;20.50;;;9.75;;
79578;SDS011;69051;52.406;5.280;2023-12-04T08:05:53;20.58;;;9.02;;
79578;SDS011;69051;52.406;5.280;2023-12-04T08:08:19;19.67;;;9.43;;
79578;SDS011;69051;52.406;5.280;2023-12-04T08:10:47;22.92;;;9.90;;
79578;SDS011;69051;52.406;5.280;2023-12-04T08:13:13;24.80;;;10.57;;
79578;SDS011;69051;52.406;5.280;2023-12-04T08:15:40;22.38;;;9.20;;
79578;SDS011;69051;52.406;5.280;2023-12-04T08:18:07;17.08;;;8.25;;
79578;SDS011;69051;52.406;5.280;2023-12-04T08:20:33;21.13;;;10.00;;
79578;SDS011;69051;52.406;5.280;2023-12-04T08:23:06;18.88;;;9.45;;
79578;SDS011;69051;52.406;5.280;2023-12-04T08:25:33;19.90;;;9.02;;
79578;SDS011;69051;52.406;5.280;2023-12-04T08:27:59;16.27;;;8.27;;
79578;SDS011;69051;52.406;5.280;2023-12-04T08:30:26;18.27;;;9.05;;
79578;SDS011;69051;52.406;5.280;2023-12-04T08:32:53;19.63;;;8.57;;
79578;SDS011;69051;52.406;5.280;2023-12-04T08:35:20;17.80;;;7.93;;
79578;SDS011;69051;52.406;5.280;2023-12-04T08:37:48;19.52;;;8.63;;
79578;SDS011;69051;52.406;5.280;2023-12-04T08:40:15;16.55;;;8.68;;
79578;SDS011;69051;52.406;5.280;2023-12-04T08:42:42;17.08;;;9.65;;
79578;SDS011;69051;52.406;5.280;2023-12-04T08:45:09;18.55;;;7.65;;
79578;SDS011;69051;52.406;5.280;2023-12-04T08:47:36;15.32;;;8.02;;
79578;SDS011;69051;52.406;5.280;2023-12-04T08:50:03;20.95;;;11.68;;
79578;SDS011;69051;52.406;5.280;2023-12-04T08:52:30;17.65;;;7.93;;
79578;SDS011;69051;52.406;5.280;2023-12-04T08:54:57;15.48;;;7.20;;
79578;SDS011;69051;52.406;5.280;2023-12-04T08:57:23;16.10;;;7.53;;
79578;SDS011;69051;52.406;5.280;2023-12-04T08:59:50;17.52;;;6.68;;
79578;SDS011;69051;52.406;5.280;2023-12-04T09:02:16;18.25;;;8.75;;
79578;SDS011;69051;52.406;5.280;2023-12-04T09:04:43;16.65;;;7.70;;
79578;SDS011;69051;52.406;5.280;2023-12-04T09:07:09;13.23;;;7.35;;
79578;SDS011;69051;52.406;5.280;2023-12-04T09:09:56;16.48;;;7.75;;
79578;SDS011;69051;52.406;5.280;2023-12-04T09:12:22;17.92;;;8.85;;
79578;SDS011;69051;52.406;5.280;2023-12-04T09:14:49;20.40;;;8.57;;
79578;SDS011;69051;52.406;5.280;2023-12-04T09:17:15;16.33;;;9.30;;
79578;SDS011;69051;52.406;5.280;2023-12-04T09:19:42;17.23;;;7.53;;
79578;SDS011;69051;52.406;5.280;2023-12-04T09:22:09;17.80;;;8.07;;
79578;SDS011;69051;52.406;5.280;2023-12-04T09:24:44;18.25;;;8.57;;
79578;SDS011;69051;52.406;5.280;2023-12-04T09:27:11;14.82;;;6.50;;
79578;SDS011;69051;52.406;5.280;2023-12-04T09:29:38;15.90;;;7.97;;
79578;SDS011;69051;52.406;5.280;2023-12-04T09:32:04;17.17;;;8.45;;
79578;SDS011;69051;52.406;5.280;2023-12-04T09:34:32;17.85;;;9.57;;
79578;SDS011;69051;52.406;5.280;2023-12-04T09:36:59;17.13;;;8.38;;
79578;SDS011;69051;52.406;5.280;2023-12-04T09:39:35;18.15;;;7.82;;
79578;SDS011;69051;52.406;5.280;2023-12-04T09:42:02;20.15;;;9.60;;
79578;SDS011;69051;52.406;5.280;2023-12-04T09:44:29;19.60;;;7.72;;
79578;SDS011;69051;52.406;5.280;2023-12-04T09:46:57;17.88;;;7.43;;
79578;SDS011;69051;52.406;5.280;2023-12-04T09:49:24;16.23;;;7.75;;
79578;SDS011;69051;52.406;5.280;2023-12-04T09:51:53;14.98;;;7.07;;
79578;SDS011;69051;52.406;5.280;2023-12-04T09:54:19;16.88;;;9.25;;
79578;SDS011;69051;52.406;5.280;2023-12-04T09:56:46;20.65;;;11.07;;
79578;SDS011;69051;52.406;5.280;2023-12-04T09:59:13;13.55;;;7.00;;
79578;SDS011;69051;52.406;5.280;2023-12-04T10:01:40;15.88;;;8.23;;
79578;SDS011;69051;52.406;5.280;2023-12-04T10:04:06;14.73;;;6.90;;
79578;SDS011;69051;52.406;5.280;2023-12-04T10:06:34;17.48;;;7.90;;
79578;SDS011;69051;52.406;5.280;2023-12-04T10:09:03;14.10;;;7.05;;
79578;SDS011;69051;52.406;5.280;2023-12-04T10:11:29;15.07;;;6.45;;
79578;SDS011;69051;52.406;5.280;2023-12-04T10:13:58;17.60;;;7.85;;
79578;SDS011;69051;52.406;5.280;2023-12-04T10:16:32;15.60;;;6.82;;
79578;SDS011;69051;52.406;5.280;2023-12-04T10:19:19;14.55;;;7.35;;
79578;SDS011;69051;52.406;5.280;2023-12-04T10:21:52;17.00;;;6.45;;
79578;SDS011;69051;52.406;5.280;2023-12-04T10:26:54;14.00;;;6.88;;
79578;SDS011;69051;52.406;5.280;2023-12-04T10:29:20;15.38;;;7.20;;
79578;SDS011;69051;52.406;5.280;2023-12-04T10:31:47;18.85;;;7.35;;
79578;SDS011;69051;52.406;5.280;2023-12-04T10:34:16;15.93;;;8.00;;
79578;SDS011;69051;52.406;5.280;2023-12-04T10:36:43;14.82;;;8.32;;
79578;SDS011;69051;52.406;5.280;2023-12-04T10:39:12;16.15;;;8.32;;
79578;SDS011;69051;52.406;5.280;2023-12-04T10:41:42;13.25;;;6.95;;
79578;SDS011;69051;52.406;5.280;2023-12-04T10:44:08;15.65;;;6.53;;
79578;SDS011;69051;52.406;5.280;2023-12-04T10:46:36;12.88;;;6.75;;
79578;SDS011;69051;52.406;5.280;2023-12-04T10:49:04;15.13;;;7.60;;
79578;SDS011;69051;52.406;5.280;2023-12-04T10:51:32;16.42;;;8.65;;
79578;SDS011;69051;52.406;5.280;2023-12-04T10:54:00;16.35;;;6.90;;
79578;SDS011;69051;52.406;5.280;2023-12-04T10:56:30;13.30;;;6.70;;
79578;SDS011;69051;52.406;5.280;2023-12-04T10:58:59;15.05;;;6.65;;
79578;SDS011;69051;52.406;5.280;2023-12-04T11:01:28;12.27;;;6.95;;
79578;SDS011;69051;52.406;5.280;2023-12-04T11:03:56;14.90;;;6.85;;
79578;SDS011;69051;52.406;5.280;2023-12-04T11:06:22;14.13;;;5.93;;
79578;SDS011;69051;52.406;5.280;2023-12-04T11:08:50;16.77;;;7.05;;
79578;SDS011;69051;52.406;5.280;2023-12-04T11:11:25;13.35;;;7.32;;
79578;SDS011;69051;52.406;5.280;2023-12-04T11:13:54;15.18;;;6.60;;
79578;SDS011;69051;52.406;5.280;2023-12-04T11:22:04;14.07;;;7.03;;
79578;SDS011;69051;52.406;5.280;2023-12-04T11:24:33;12.73;;;6.00;;
79578;SDS011;69051;52.406;5.280;2023-12-04T11:27:01;15.52;;;8.35;;
79578;SDS011;69051;52.406;5.280;2023-12-04T11:29:29;20.15;;;6.10;;
79578;SDS011;69051;52.406;5.280;2023-12-04T11:31:56;14.13;;;8.05;;
79578;SDS011;69051;52.406;5.280;2023-12-04T11:34:23;14.68;;;6.03;;
79578;SDS011;69051;52.406;5.280;2023-12-04T11:36:50;15.48;;;7.03;;
79578;SDS011;69051;52.406;5.280;2023-12-04T11:39:18;13.00;;;5.78;;
79578;SDS011;69051;52.406;5.280;2023-12-04T11:41:45;15.70;;;7.30;;
79578;SDS011;69051;52.406;5.280;2023-12-04T11:44:12;15.80;;;7.00;;
79578;SDS011;69051;52.406;5.280;2023-12-04T11:46:55;13.07;;;7.10;;
79578;SDS011;69051;52.406;5.280;2023-12-04T11:49:28;14.77;;;6.78;;
79578;SDS011;69051;52.406;5.280;2023-12-04T11:51:56;17.38;;;7.30;;
79578;SDS011;69051;52.406;5.280;2023-12-04T11:54:27;15.52;;;7.80;;
79578;SDS011;69051;52.406;5.280;2023-12-04T11:57:20;14.32;;;7.60;;
79578;SDS011;69051;52.406;5.280;2023-12-04T11:59:50;16.48;;;8.40;;
79578;SDS011;69051;52.406;5.280;2023-12-04T12:02:18;17.40;;;9.35;;
79578;SDS011;69051;52.406;5.280;2023-12-04T12:04:44;17.55;;;9.20;;
79578;SDS011;69051;52.406;5.280;2023-12-04T12:07:12;16.23;;;6.22;;
79578;SDS011;69051;52.406;5.280;2023-12-04T12:09:38;16.20;;;6.13;;
79578;SDS011;69051;52.406;5.280;2023-12-04T12:12:05;19.15;;;8.73;;
79578;SDS011;69051;52.406;5.280;2023-12-04T12:14:32;16.17;;;7.70;;
79578;SDS011;69051;52.406;5.280;2023-12-04T12:16:59;18.05;;;8.57;;
79578;SDS011;69051;52.406;5.280;2023-12-04T12:19:26;16.15;;;8.63;;
79578;SDS011;69051;52.406;5.280;2023-12-04T12:21:53;16.27;;;8.18;;
79578;SDS011;69051;52.406;5.280;2023-12-04T12:24:20;18.15;;;8.65;;
79578;SDS011;69051;52.406;5.280;2023-12-04T12:26:46;17.33;;;9.00;;
79578;SDS011;69051;52.406;5.280;2023-12-04T12:29:13;19.77;;;7.65;;
79578;SDS011;69051;52.406;5.280;2023-12-04T12:31:40;21.20;;;9.02;;
79578;SDS011;69051;52.406;5.280;2023-12-04T12:34:06;17.67;;;7.55;;
79578;SDS011;69051;52.406;5.280;2023-12-04T12:36:33;18.25;;;9.10;;
79578;SDS011;69051;52.406;5.280;2023-12-04T12:39:00;16.77;;;8.10;;
79578;SDS011;69051;52.406;5.280;2023-12-04T12:41:30;19.20;;;10.93;;
79578;SDS011;69051;52.406;5.280;2023-12-04T12:43:57;16.33;;;7.35;;
79578;SDS011;69051;52.406;5.280;2023-12-04T12:46:23;18.90;;;7.78;;
79578;SDS011;69051;52.406;5.280;2023-12-04T12:48:50;20.63;;;9.93;;
79578;SDS011;69051;52.406;5.280;2023-12-04T12:51:17;18.40;;;9.48;;
79578;SDS011;69051;52.406;5.280;2023-12-04T12:53:44;19.58;;;8.80;;
79578;SDS011;69051;52.406;5.280;2023-12-04T12:56:17;26.30;;;8.40;;
79578;SDS011;69051;52.406;5.280;2023-12-04T12:58:44;20.98;;;10.18;;
79578;SDS011;69051;52.406;5.280;2023-12-04T13:01:10;18.83;;;9.35;;
79578;SDS011;69051;52.406;5.280;2023-12-04T13:03:37;20.45;;;10.23;;
79578;SDS011;69051;52.406;5.280;2023-12-04T13:06:04;16.73;;;7.50;;
79578;SDS011;69051;52.406;5.280;2023-12-04T13:08:31;18.75;;;8.23;;
79578;SDS011;69051;52.406;5.280;2023-12-04T13:10:57;19.65;;;9.02;;
79578;SDS011;69051;52.406;5.280;2023-12-04T13:13:24;24.67;;;9.95;;
79578;SDS011;69051;52.406;5.280;2023-12-04T13:15:50;18.98;;;9.90;;
79578;SDS011;69051;52.406;5.280;2023-12-04T13:18:17;16.75;;;9.18;;
79578;SDS011;69051;52.406;5.280;2023-12-04T13:20:44;17.75;;;8.88;;
79578;SDS011;69051;52.406;5.280;2023-12-04T13:23:10;17.27;;;9.25;;
79578;SDS011;69051;52.406;5.280;2023-12-04T13:25:37;17.80;;;8.65;;
79578;SDS011;69051;52.406;5.280;2023-12-04T13:28:04;17.15;;;7.57;;
79578;SDS011;69051;52.406;5.280;2023-12-04T13:30:30;19.63;;;8.32;;
79578;SDS011;69051;52.406;5.280;2023-12-04T13:32:57;17.88;;;8.27;;
79578;SDS011;69051;52.406;5.280;2023-12-04T13:35:24;16.75;;;8.77;;
79578;SDS011;69051;52.406;5.280;2023-12-04T13:37:50;20.15;;;9.80;;
79578;SDS011;69051;52.406;5.280;2023-12-04T13:40:21;16.75;;;8.30;;
79578;SDS011;69051;52.406;5.280;2023-12-04T13:42:52;19.67;;;8.75;;
79578;SDS011;69051;52.406;5.280;2023-12-04T13:45:38;17.15;;;8.65;;
79578;SDS011;69051;52.406;5.280;2023-12-04T13:48:04;18.27;;;9.55;;
79578;SDS011;69051;52.406;5.280;2023-12-04T13:50:31;19.08;;;8.50;;
79578;SDS011;69051;52.406;5.280;2023-12-04T13:52:57;19.50;;;8.52;;
79578;SDS011;69051;52.406;5.280;2023-12-04T13:55:24;18.00;;;10.20;;
79578;SDS011;69051;52.406;5.280;2023-12-04T13:58:11;17.85;;;9.70;;
79578;SDS011;69051;52.406;5.280;2023-12-04T14:00:58;19.17;;;8.70;;
79578;SDS011;69051;52.406;5.280;2023-12-04T14:03:25;21.63;;;10.45;;
79578;SDS011;69051;52.406;5.280;2023-12-04T14:05:52;19.00;;;10.15;;
79578;SDS011;69051;52.406;5.280;2023-12-04T14:08:19;20.15;;;10.00;;
79578;SDS011;69051;52.406;5.280;2023-12-04T14:10:46;15.25;;;8.05;;
79578;SDS011;69051;52.406;5.280;2023-12-04T14:13:12;19.77;;;8.18;;
79578;SDS011;69051;52.406;5.280;2023-12-04T14:15:39;18.98;;;8.93;;
79578;SDS011;69051;52.406;5.280;2023-12-04T14:18:06;16.25;;;8.38;;
79578;SDS011;69051;52.406;5.280;2023-12-04T14:20:32;21.65;;;9.35;;
79578;SDS011;69051;52.406;5.280;2023-12-04T14:22:59;16.38;;;8.32;;
79578;SDS011;69051;52.406;5.280;2023-12-04T14:25:25;17.50;;;7.30;;
79578;SDS011;69051;52.406;5.280;2023-12-04T14:27:52;23.77;;;9.52;;
79578;SDS011;69051;52.406;5.280;2023-12-04T14:30:19;16.75;;;7.57;;
79578;SDS011;69051;52.406;5.280;2023-12-04T14:32:46;18.92;;;7.85;;
79578;SDS011;69051;52.406;5.280;2023-12-04T14:35:14;20.90;;;8.95;;
79578;SDS011;69051;52.406;5.280;2023-12-04T14:37:41;18.73;;;9.38;;